createdAt,value
2023-03-13T00:00:35.554Z,4.60
2023-03-13T00:03:04.343Z,6.13
2023-03-13T00:05:32.080Z,6.50
2023-03-13T00:08:21.573Z,6.60
2023-03-13T00:10:56.279Z,12.00
2023-03-13T00:13:38.924Z,15.90
2023-03-13T00:16:08.705Z,18.23
2023-03-13T00:18:49.669Z,18.37
2023-03-13T00:21:20.009Z,19.53
2023-03-13T00:23:48.304Z,24.17
2023-03-13T00:26:17.196Z,18.40
2023-03-13T00:28:53.193Z,16.53
2023-03-13T00:31:29.158Z,16.23
2023-03-13T00:33:58.715Z,17.47
2023-03-13T00:36:28.692Z,17.40
2023-03-13T00:39:01.774Z,18.00
2023-03-13T00:41:30.339Z,16.70
2023-03-13T00:44:13.564Z,16.23
2023-03-13T00:46:42.355Z,16.27
2023-03-13T00:49:11.108Z,17.07
2023-03-13T00:51:39.905Z,14.97
2023-03-13T00:54:10.410Z,15.43
2023-03-13T00:56:42.421Z,15.63
2023-03-13T00:59:11.121Z,19.27
2023-03-13T01:01:41.246Z,20.20
2023-03-13T01:04:15.004Z,20.67
2023-03-13T01:06:43.870Z,15.83
2023-03-13T01:09:13.820Z,15.67
2023-03-13T01:11:44.449Z,15.77
2023-03-13T01:14:14.061Z,16.00
2023-03-13T01:16:44.462Z,16.80
2023-03-13T01:19:13.573Z,15.17
2023-03-13T01:21:41.838Z,15.13
2023-03-13T01:24:09.648Z,14.73
2023-03-13T01:26:38.425Z,16.40
2023-03-13T01:29:06.206Z,16.97
2023-03-13T01:31:35.892Z,15.03
2023-03-13T01:34:05.945Z,16.93
2023-03-13T01:36:34.961Z,16.33
2023-03-13T01:39:02.789Z,12.63
2023-03-13T01:41:32.447Z,15.43
2023-03-13T01:44:00.319Z,13.87
2023-03-13T01:46:28.804Z,16.10
2023-03-13T01:49:01.806Z,16.27
2023-03-13T01:51:33.895Z,11.47
2023-03-13T01:54:05.876Z,11.13
2023-03-13T01:56:37.632Z,11.07
2023-03-13T01:59:06.441Z,11.63
2023-03-13T02:01:35.238Z,11.93
2023-03-13T02:04:03.089Z,15.67
2023-03-13T02:06:34.105Z,16.60
2023-03-13T02:09:05.170Z,17.87
2023-03-13T02:11:38.327Z,18.50
2023-03-13T02:14:06.265Z,18.17
2023-03-13T02:16:34.246Z,20.13
2023-03-13T02:19:03.297Z,19.13
2023-03-13T02:21:40.675Z,19.07
2023-03-13T02:24:10.954Z,8.20
2023-03-13T02:26:41.164Z,14.53
2023-03-13T02:29:09.457Z,9.67
2023-03-13T02:31:38.411Z,9.83
2023-03-13T02:34:06.358Z,9.70
2023-03-13T02:36:34.302Z,9.07
2023-03-13T02:39:07.080Z,9.17
2023-03-13T02:41:37.185Z,7.83
2023-03-13T02:44:07.019Z,6.00
2023-03-13T02:46:45.281Z,6.17
2023-03-13T02:49:20.820Z,5.90
2023-03-13T02:51:48.897Z,6.50
2023-03-13T02:54:18.530Z,6.53
2023-03-13T02:56:49.185Z,6.87
2023-03-13T02:59:19.298Z,7.10
2023-03-13T03:01:47.064Z,7.10
2023-03-13T03:04:15.882Z,6.93
2023-03-13T03:06:44.723Z,6.70
2023-03-13T03:09:13.544Z,6.63
2023-03-13T03:11:41.362Z,6.50
2023-03-13T03:14:09.769Z,6.53
2023-03-13T03:16:40.512Z,6.40
2023-03-13T03:19:08.971Z,6.70
2023-03-13T03:21:36.793Z,6.63
2023-03-13T03:24:04.766Z,6.80
2023-03-13T03:26:32.580Z,7.47
2023-03-13T03:29:00.353Z,7.80
2023-03-13T03:31:29.172Z,7.43
2023-03-13T03:33:58.537Z,7.10
2023-03-13T03:36:26.340Z,7.80
2023-03-13T03:38:55.087Z,7.87
2023-03-13T03:41:23.898Z,7.90
2023-03-13T03:43:52.775Z,7.60
2023-03-13T03:46:21.559Z,8.03
2023-03-13T03:48:49.354Z,8.17
2023-03-13T03:51:18.436Z,8.40
2023-03-13T03:53:47.229Z,8.67
2023-03-13T03:56:16.176Z,8.87
2023-03-13T03:58:43.965Z,9.20
2023-03-13T04:01:11.712Z,9.17
2023-03-13T04:03:40.607Z,9.20
2023-03-13T04:06:09.450Z,9.23
2023-03-13T04:08:38.734Z,9.27
2023-03-13T04:11:06.440Z,9.37
2023-03-13T04:13:34.196Z,9.47
2023-03-13T04:16:01.963Z,8.93
2023-03-13T04:18:29.753Z,9.57
2023-03-13T04:21:01.945Z,9.20
2023-03-13T04:23:43.028Z,8.70
2023-03-13T04:26:10.775Z,8.40
2023-03-13T04:28:38.541Z,8.93
2023-03-13T04:31:06.421Z,8.60
2023-03-13T04:33:34.366Z,8.63
2023-03-13T04:36:02.184Z,13.37
2023-03-13T04:38:29.981Z,13.50
2023-03-13T04:40:59.170Z,14.17
2023-03-13T04:43:26.992Z,13.80
2023-03-13T04:45:55.814Z,13.00
2023-03-13T04:48:23.699Z,12.27
2023-03-13T04:50:51.506Z,12.47
2023-03-13T04:53:19.474Z,12.53
2023-03-13T04:55:47.613Z,12.33
2023-03-13T04:58:16.802Z,13.00
2023-03-13T05:00:45.549Z,13.10
2023-03-13T05:03:14.280Z,11.63
2023-03-13T05:05:42.042Z,12.50
2023-03-13T05:08:10.945Z,12.63
2023-03-13T05:10:39.631Z,12.70
2023-03-13T05:13:10.261Z,12.33
2023-03-13T05:15:39.481Z,12.00
2023-03-13T05:18:07.274Z,12.00
2023-03-13T05:20:35.047Z,12.00
2023-03-13T05:23:02.763Z,12.50
2023-03-13T05:25:30.602Z,11.40
2023-03-13T05:27:59.344Z,12.07
2023-03-13T05:30:28.350Z,11.37
2023-03-13T05:32:57.599Z,11.47
2023-03-13T05:35:25.610Z,11.37
2023-03-13T05:37:56.453Z,11.50
2023-03-13T05:40:27.150Z,11.37
2023-03-13T05:42:55.069Z,11.57
2023-03-13T05:45:22.965Z,12.23
2023-03-13T05:47:50.790Z,12.93
2023-03-13T05:50:25.914Z,12.50
2023-03-13T05:52:55.778Z,13.10
2023-03-13T05:55:23.463Z,14.63
2023-03-13T05:57:52.293Z,13.53
2023-03-13T06:00:20.694Z,13.20
2023-03-13T06:02:48.435Z,14.00
2023-03-13T06:05:18.277Z,12.70
2023-03-13T06:07:50.167Z,12.30
2023-03-13T06:10:19.196Z,11.77
2023-03-13T06:12:53.515Z,12.00
2023-03-13T06:15:22.319Z,13.07
2023-03-13T06:17:51.081Z,13.43
2023-03-13T06:20:18.960Z,12.03
2023-03-13T06:22:49.104Z,11.93
2023-03-13T06:25:17.075Z,12.93
2023-03-13T06:27:44.800Z,13.33
2023-03-13T06:30:13.112Z,13.20
2023-03-13T06:32:40.933Z,14.13
2023-03-13T06:35:09.127Z,13.93
2023-03-13T06:37:38.139Z,13.87
2023-03-13T06:40:08.571Z,13.70
2023-03-13T06:42:36.304Z,12.67
2023-03-13T06:45:05.211Z,12.50
2023-03-13T06:47:33.971Z,12.10
2023-03-13T06:50:01.726Z,12.23
2023-03-13T06:52:42.829Z,12.60
2023-03-13T06:55:12.876Z,12.40
2023-03-13T06:57:40.728Z,13.40
2023-03-13T07:00:11.469Z,13.10
2023-03-13T07:02:39.200Z,13.27
2023-03-13T07:05:07.984Z,14.13
2023-03-13T07:07:35.988Z,12.20
2023-03-13T07:10:06.196Z,12.83
2023-03-13T07:12:35.466Z,11.10
2023-03-13T07:15:03.351Z,9.00
2023-03-13T07:17:31.167Z,8.87
2023-03-13T07:19:59.054Z,10.70
2023-03-13T07:22:26.835Z,10.40
2023-03-13T07:24:54.924Z,11.40
2023-03-13T07:27:23.901Z,11.00
2023-03-13T07:29:53.159Z,10.37
2023-03-13T07:32:20.926Z,10.63
2023-03-13T07:34:48.678Z,10.43
2023-03-13T07:37:17.700Z,10.83
2023-03-13T07:39:45.550Z,8.63
2023-03-13T07:42:14.290Z,8.73
2023-03-13T07:44:43.470Z,9.70
2023-03-13T07:47:12.663Z,9.17
2023-03-13T07:49:42.199Z,8.83
2023-03-13T07:52:10.385Z,9.53
2023-03-13T07:54:38.257Z,10.13
2023-03-13T07:57:06.895Z,9.83
2023-03-13T07:59:34.697Z,9.57
2023-03-13T08:02:02.854Z,9.87
2023-03-13T08:04:32.013Z,9.67
2023-03-13T08:07:00.971Z,9.20
2023-03-13T08:09:28.726Z,9.10
2023-03-13T08:11:58.498Z,8.30
2023-03-13T08:14:26.393Z,9.27
2023-03-13T08:16:54.372Z,10.17
2023-03-13T08:19:22.208Z,10.00
2023-03-13T08:21:51.362Z,10.00
2023-03-13T08:24:20.157Z,10.33
2023-03-13T08:26:47.897Z,10.33
2023-03-13T08:29:16.082Z,10.13
2023-03-13T08:31:45.670Z,10.60
2023-03-13T08:34:13.591Z,10.63
2023-03-13T08:36:41.637Z,11.20
2023-03-13T08:39:12.158Z,11.57
2023-03-13T08:41:40.792Z,10.20
2023-03-13T08:44:09.686Z,10.60
2023-03-13T08:46:37.778Z,10.30
2023-03-13T08:49:05.974Z,9.37
2023-03-13T08:51:34.144Z,9.83
2023-03-13T08:54:02.218Z,9.27
2023-03-13T08:56:31.858Z,9.60
2023-03-13T08:59:00.412Z,11.50
2023-03-13T09:01:28.845Z,10.67
2023-03-13T09:03:57.860Z,11.00
2023-03-13T09:06:25.747Z,11.20
2023-03-13T09:08:53.515Z,10.23
2023-03-13T09:11:22.607Z,10.27
2023-03-13T09:13:52.483Z,10.13
2023-03-13T09:16:21.003Z,11.63
2023-03-13T09:18:49.111Z,11.03
2023-03-13T09:21:17.959Z,11.27
2023-03-13T09:23:45.752Z,10.43
2023-03-13T09:26:14.848Z,11.50
2023-03-13T09:28:43.212Z,10.63
2023-03-13T09:31:14.670Z,10.30
2023-03-13T09:33:42.784Z,10.40
2023-03-13T09:36:10.921Z,10.50
2023-03-13T09:38:39.320Z,10.37
2023-03-13T09:41:16.165Z,10.03
2023-03-13T09:43:47.122Z,10.50
2023-03-13T09:46:19.348Z,9.80
2023-03-13T09:48:49.179Z,10.93
2023-03-13T09:51:19.608Z,11.33
2023-03-13T09:53:49.668Z,11.37
2023-03-13T09:56:18.903Z,10.93
2023-03-13T09:58:51.417Z,11.57
2023-03-13T10:01:23.642Z,11.20
2023-03-13T10:03:55.871Z,11.00
2023-03-13T10:06:25.220Z,11.93
2023-03-13T10:08:53.625Z,11.73
2023-03-13T10:11:25.179Z,11.80
2023-03-13T10:13:56.850Z,12.23
2023-03-13T10:16:28.184Z,11.77
2023-03-13T10:18:57.284Z,11.13
2023-03-13T10:21:27.335Z,11.40
2023-03-13T10:23:59.153Z,10.73
2023-03-13T10:26:28.573Z,11.57
2023-03-13T10:28:57.197Z,10.73
2023-03-13T10:31:29.659Z,11.20
2023-03-13T10:34:06.747Z,10.70
2023-03-13T10:36:40.831Z,10.83
2023-03-13T10:39:09.637Z,10.60
2023-03-13T10:41:38.601Z,11.50
2023-03-13T10:44:08.409Z,10.27
2023-03-13T10:46:41.802Z,10.53
2023-03-13T10:49:16.026Z,9.50
2023-03-13T10:51:48.471Z,10.37
2023-03-13T10:54:17.353Z,9.40
2023-03-13T10:56:45.194Z,10.00
2023-03-13T10:59:23.689Z,11.00
2023-03-13T11:01:53.168Z,10.07
2023-03-13T11:04:22.281Z,10.20
2023-03-13T11:06:52.425Z,9.97
2023-03-13T11:09:20.560Z,10.77
2023-03-13T11:11:49.426Z,9.70
2023-03-13T11:14:19.023Z,9.43
2023-03-13T11:16:51.394Z,10.00
2023-03-13T11:19:36.245Z,10.17
2023-03-13T11:22:08.607Z,9.23
2023-03-13T11:24:41.519Z,10.20
2023-03-13T11:27:15.051Z,9.77
2023-03-13T11:29:47.761Z,9.50
2023-03-13T11:32:21.320Z,9.13
2023-03-13T11:34:52.961Z,10.63
2023-03-13T11:37:21.376Z,9.77
2023-03-13T11:39:53.031Z,10.77
2023-03-13T11:42:37.197Z,11.17
2023-03-13T11:45:08.954Z,9.73
2023-03-13T11:47:54.371Z,9.83
2023-03-13T11:50:38.263Z,10.47
2023-03-13T11:53:13.997Z,9.33
2023-03-13T11:55:46.958Z,8.77
2023-03-13T11:58:23.603Z,8.47
2023-03-13T12:00:56.639Z,9.77
2023-03-13T12:03:27.940Z,9.70
2023-03-13T12:05:57.520Z,10.30
2023-03-13T12:08:28.191Z,12.63
2023-03-13T12:10:59.833Z,13.10
2023-03-13T12:13:30.143Z,11.57
2023-03-13T12:15:59.556Z,11.30
2023-03-13T12:18:31.384Z,10.20
2023-03-13T12:21:01.670Z,9.33
2023-03-13T12:23:35.890Z,9.47
2023-03-13T12:26:06.124Z,8.87
2023-03-13T12:28:36.858Z,8.77
2023-03-13T12:31:08.149Z,8.97
2023-03-13T12:33:39.223Z,9.17
2023-03-13T12:36:09.983Z,8.83
2023-03-13T12:38:41.714Z,10.20
2023-03-13T12:41:18.563Z,10.60
2023-03-13T12:44:07.155Z,10.97
2023-03-13T12:46:38.142Z,10.50
2023-03-13T12:49:22.400Z,9.97
2023-03-13T12:51:59.051Z,9.83
2023-03-13T13:01:37.983Z,11.87
2023-03-13T13:07:40.411Z,11.10
2023-03-13T13:20:42.219Z,11.67
2023-03-13T13:23:35.021Z,11.80
2023-03-13T13:26:22.388Z,9.87
2023-03-13T13:28:51.635Z,10.33
2023-03-13T13:31:34.257Z,9.77
2023-03-13T13:34:02.041Z,11.03
2023-03-13T13:36:42.954Z,10.37
2023-03-13T13:39:30.978Z,10.83
2023-03-13T13:41:58.752Z,11.50
2023-03-13T13:44:29.505Z,11.70
2023-03-13T13:46:59.520Z,12.17
2023-03-13T13:49:31.627Z,12.67
2023-03-13T13:52:17.264Z,13.40
2023-03-13T13:54:56.067Z,12.87
2023-03-13T13:57:25.074Z,13.27
2023-03-13T13:59:55.719Z,13.03
2023-03-13T14:02:24.609Z,12.70
2023-03-13T14:04:57.649Z,13.20
2023-03-13T14:07:28.632Z,12.47
2023-03-13T14:10:01.577Z,12.83
2023-03-13T14:12:30.357Z,11.50
2023-03-13T14:15:09.814Z,12.77
2023-03-13T14:17:41.522Z,11.80
2023-03-13T14:20:24.281Z,12.07
2023-03-13T14:22:53.740Z,11.87
2023-03-13T14:25:21.724Z,13.43
2023-03-13T14:27:50.314Z,14.57
2023-03-13T14:30:20.595Z,12.27
2023-03-13T14:32:48.398Z,12.73
2023-03-13T14:35:17.393Z,14.83
2023-03-13T14:37:46.077Z,13.27
2023-03-13T14:40:21.105Z,13.10
2023-03-13T14:42:49.795Z,17.47
2023-03-13T14:45:22.548Z,22.17
2023-03-13T14:47:53.383Z,18.17
2023-03-13T14:50:22.718Z,11.33
2023-03-13T14:52:51.048Z,10.43
2023-03-13T14:55:29.328Z,9.13
2023-03-13T14:57:58.047Z,9.70
2023-03-13T15:00:32.035Z,10.20
2023-03-13T15:03:20.113Z,9.70
2023-03-13T15:05:50.014Z,10.53
2023-03-13T15:08:18.715Z,10.47
2023-03-13T15:10:46.613Z,10.23
2023-03-13T15:13:18.223Z,10.87
2023-03-13T15:15:47.928Z,11.20
2023-03-13T15:18:20.272Z,11.13
2023-03-13T15:20:52.642Z,10.27
2023-03-13T15:23:20.647Z,11.50
2023-03-13T15:25:48.438Z,11.90
2023-03-13T15:28:16.850Z,11.83
2023-03-13T15:30:44.636Z,12.70
2023-03-13T15:33:14.811Z,11.30
2023-03-13T15:35:42.647Z,13.90
2023-03-13T15:38:14.178Z,13.57
2023-03-13T15:40:42.326Z,13.87
2023-03-13T15:43:10.467Z,13.13
2023-03-13T15:45:39.069Z,12.90
2023-03-13T15:48:16.026Z,12.60
2023-03-13T15:50:43.949Z,12.40
2023-03-13T15:53:18.077Z,12.83
2023-03-13T15:55:46.022Z,12.50
2023-03-13T15:58:14.404Z,11.87
2023-03-13T16:00:42.661Z,11.73
2023-03-13T16:03:15.065Z,12.17
2023-03-13T16:05:42.779Z,11.73
2023-03-13T16:08:12.181Z,11.83
2023-03-13T16:10:41.302Z,10.90
2023-03-13T16:13:09.004Z,12.07
2023-03-13T16:15:37.089Z,12.20
2023-03-13T16:18:04.906Z,10.87
2023-03-13T16:20:32.918Z,11.93
2023-03-13T16:23:03.703Z,12.23
2023-03-13T16:25:32.214Z,12.57
2023-03-13T16:28:01.352Z,11.53
2023-03-13T16:30:29.776Z,12.37
2023-03-13T16:32:57.716Z,11.40
2023-03-13T16:35:27.426Z,10.77
2023-03-13T16:37:55.490Z,12.10
2023-03-13T16:40:25.179Z,10.73
2023-03-13T16:42:53.119Z,11.73
2023-03-13T16:45:22.307Z,11.50
2023-03-13T16:47:50.079Z,11.97
2023-03-13T16:50:23.593Z,12.10
2023-03-13T16:52:51.366Z,11.53
2023-03-13T16:55:19.121Z,11.17
2023-03-13T16:57:46.848Z,11.93
2023-03-13T17:00:15.922Z,11.77
2023-03-13T17:02:45.153Z,11.57
2023-03-13T17:05:16.237Z,12.33
2023-03-13T17:07:44.547Z,12.57
2023-03-13T17:10:17.143Z,12.67
2023-03-13T17:12:44.889Z,11.73
2023-03-13T17:15:12.885Z,12.53
2023-03-13T17:17:40.660Z,12.90
2023-03-13T17:20:12.824Z,12.00
2023-03-13T17:22:40.582Z,11.63
2023-03-13T17:25:08.653Z,12.17
2023-03-13T17:27:36.438Z,12.37
2023-03-13T17:30:04.954Z,11.77
2023-03-13T17:32:32.713Z,11.73
2023-03-13T17:35:00.477Z,10.87
2023-03-13T17:37:29.855Z,11.33
2023-03-13T17:39:57.544Z,12.10
2023-03-13T17:42:25.307Z,11.93
2023-03-13T17:44:53.018Z,11.90
2023-03-13T17:47:23.580Z,12.10
2023-03-13T17:49:51.330Z,12.03
2023-03-13T17:52:19.064Z,11.77
2023-03-13T17:54:48.189Z,12.23
2023-03-13T17:57:17.082Z,11.67
2023-03-13T17:59:45.110Z,11.67
2023-03-13T18:02:13.754Z,11.20
2023-03-13T18:04:41.854Z,11.67
2023-03-13T18:07:16.145Z,11.10
2023-03-13T18:09:47.610Z,11.23
2023-03-13T18:12:16.883Z,10.63
2023-03-13T18:14:44.991Z,10.97
2023-03-13T18:17:15.828Z,10.70
2023-03-13T18:19:44.630Z,11.33
2023-03-13T18:22:14.314Z,11.23
2023-03-13T18:24:42.913Z,11.67
2023-03-13T18:27:11.989Z,11.47
2023-03-13T18:29:41.113Z,11.40
2023-03-13T18:32:09.021Z,10.07
2023-03-13T18:34:36.718Z,10.03
2023-03-13T18:37:04.825Z,10.70
2023-03-13T18:39:33.632Z,11.27
2023-03-13T18:42:02.095Z,10.43
2023-03-13T18:44:29.892Z,10.77
2023-03-13T18:46:59.045Z,8.90
2023-03-13T18:49:26.820Z,8.30
2023-03-13T18:51:54.610Z,10.13
2023-03-13T18:54:22.293Z,10.60
2023-03-13T18:56:50.008Z,9.77
2023-03-13T18:59:19.493Z,10.50
2023-03-13T19:01:48.421Z,9.43
2023-03-13T19:04:18.171Z,9.07
2023-03-13T19:06:46.945Z,9.33
2023-03-13T19:09:40.987Z,10.03
2023-03-13T19:12:03.540Z,8.53
2023-03-13T19:14:31.247Z,9.10
2023-03-13T19:16:59.056Z,8.40
2023-03-13T19:19:28.812Z,9.23
2023-03-13T19:21:57.224Z,8.97
2023-03-13T19:24:26.942Z,9.67
2023-03-13T19:26:58.845Z,9.30
2023-03-13T19:29:27.837Z,10.03
2023-03-13T19:31:55.976Z,8.97
2023-03-13T19:34:23.965Z,10.00
2023-03-13T19:36:53.497Z,13.93
2023-03-13T19:39:23.586Z,20.50
2023-03-13T19:41:51.760Z,23.30
2023-03-13T19:44:20.484Z,23.80
2023-03-13T19:46:48.578Z,22.87
2023-03-13T19:49:16.915Z,23.73
2023-03-13T19:51:47.857Z,23.37
2023-03-13T19:54:17.145Z,19.87
2023-03-13T19:56:45.659Z,19.13
2023-03-13T19:59:15.504Z,19.60
2023-03-13T20:01:43.767Z,18.00
2023-03-13T20:04:11.934Z,19.30
2023-03-13T20:06:40.166Z,19.23
2023-03-13T20:09:09.131Z,18.77
2023-03-13T20:11:38.291Z,17.27
2023-03-13T20:14:06.206Z,17.23
2023-03-13T20:16:35.302Z,15.73
2023-03-13T20:19:03.145Z,17.27
2023-03-13T20:21:31.445Z,14.60
2023-03-13T20:23:59.569Z,16.03
2023-03-13T20:26:28.619Z,15.97
2023-03-13T20:28:58.394Z,17.60
2023-03-13T20:31:27.293Z,18.37
2023-03-13T20:33:56.150Z,17.07
2023-03-13T20:36:24.696Z,17.70
2023-03-13T20:38:52.409Z,17.93
2023-03-13T20:41:24.516Z,17.80
2023-03-13T20:43:52.438Z,14.67
2023-03-13T20:46:21.807Z,17.90
2023-03-13T20:48:50.139Z,16.77
2023-03-13T20:51:18.149Z,18.20
2023-03-13T20:53:45.920Z,16.73
2023-03-13T20:56:13.750Z,14.50
2023-03-13T20:58:41.590Z,14.73
2023-03-13T21:01:09.600Z,14.67
2023-03-13T21:03:39.528Z,16.27
2023-03-13T21:06:10.900Z,16.53
2023-03-13T21:08:39.113Z,17.00
2023-03-13T21:11:12.188Z,15.80
2023-03-13T21:13:39.903Z,21.93
2023-03-13T21:16:08.270Z,50.97
2023-03-13T21:18:36.081Z,55.13
2023-03-13T21:21:06.256Z,56.70
2023-03-13T21:23:34.063Z,55.57
2023-03-13T21:26:01.840Z,55.33
2023-03-13T21:28:29.655Z,52.20
2023-03-13T21:30:57.710Z,54.43
2023-03-13T21:33:25.451Z,50.47
2023-03-13T21:35:53.232Z,50.33
2023-03-13T21:38:22.370Z,51.10
2023-03-13T21:40:50.078Z,49.60
2023-03-13T21:43:17.774Z,49.57
2023-03-13T21:45:45.474Z,47.93
2023-03-13T21:48:13.141Z,45.77
2023-03-13T21:50:40.832Z,41.17
2023-03-13T21:53:08.589Z,43.10
2023-03-13T21:55:39.911Z,46.60
2023-03-13T21:58:07.634Z,43.20
2023-03-13T22:00:35.343Z,43.67
2023-03-13T22:03:03.126Z,41.13
2023-03-13T22:05:30.956Z,44.67
2023-03-13T22:07:58.699Z,46.60
2023-03-13T22:10:26.450Z,47.93
2023-03-13T22:12:55.622Z,46.83
2023-03-13T22:15:23.376Z,48.17
2023-03-13T22:17:51.078Z,46.07
2023-03-13T22:20:19.059Z,52.90
2023-03-13T22:22:46.782Z,42.17
2023-03-13T22:25:14.522Z,42.40
2023-03-13T22:27:42.244Z,42.27
2023-03-13T22:30:12.638Z,38.67
2023-03-13T22:32:40.403Z,33.37
2023-03-13T22:35:08.894Z,37.47
2023-03-13T22:37:36.954Z,35.60
2023-03-13T22:40:05.081Z,38.77
2023-03-13T22:42:32.837Z,38.57
2023-03-13T22:45:00.556Z,43.87
2023-03-13T22:47:29.666Z,42.13
2023-03-13T22:49:57.530Z,44.43
2023-03-13T22:52:30.617Z,40.73
2023-03-13T22:54:58.613Z,33.17
2023-03-13T22:57:26.332Z,30.70
2023-03-13T22:59:54.147Z,31.00
2023-03-13T23:02:21.902Z,34.03
2023-03-13T23:04:51.018Z,33.87
2023-03-13T23:07:18.781Z,35.57
2023-03-13T23:09:46.734Z,39.53
2023-03-13T23:12:14.480Z,40.83
2023-03-13T23:14:42.166Z,43.50
2023-03-13T23:17:10.067Z,43.77
2023-03-13T23:19:37.798Z,43.60
2023-03-13T23:22:06.931Z,43.20
2023-03-13T23:24:34.668Z,42.63
2023-03-13T23:27:02.358Z,42.37
2023-03-13T23:29:30.051Z,41.10
2023-03-13T23:31:57.797Z,44.00
2023-03-13T23:34:25.582Z,42.73
2023-03-13T23:36:54.431Z,41.97
2023-03-13T23:39:23.572Z,43.37
2023-03-13T23:41:51.306Z,40.47
2023-03-13T23:44:19.010Z,42.10
2023-03-13T23:46:46.692Z,32.70
2023-03-13T23:49:14.426Z,26.93
2023-03-13T23:51:42.171Z,22.73
2023-03-13T23:54:09.948Z,19.00
2023-03-13T23:56:39.071Z,20.30
2023-03-13T23:59:06.807Z,18.37
